KFLO

Florence Regional Airport

Florence, South Carolina, USA
KFLO 192320Z 2000/2024 03003KT P6SM FEW040 FM200100 00000KT P6SM SKC FM201400 04007KT P6SM FEW200 FM201800 11005KT P6SM FEW040 FEW200
Issued Valid From Valid To
Sep-19 @ 23:20 UTC
(an hour ago)
Sep-20 @ 00:00 UTC
(41 minutes ago)
Sep-21 @ 00:00 UTC
(in 23 hours)
Sep-20 @ 00:00 to Sep-20 @ 01:00
KFLO 192320Z 2000/2024 03003KT P6SM FEW040
Wind Visibility Clouds
30° at 3 knots Greater than 6 miles
  • Few at 4,000' AGL
From Sep-20 @ 01:00 to Sep-20 @ 14:00
FM200100 00000KT P6SM SKC
Visibility Clouds
Greater than 6 miles
  • Clear skies
From Sep-20 @ 14:00 to Sep-20 @ 18:00
FM201400 04007KT P6SM FEW200
Wind Visibility Clouds
40° at 7 knots Greater than 6 miles
  • Few at 20,000' AGL
From Sep-20 @ 18:00 to Sep-21 @ 00:00
FM201800 11005KT P6SM FEW040 FEW200
Wind Visibility Clouds
110° at 5 knots Greater than 6 miles
  • Few at 4,000' AGL
  • Few at 20,000' AGL
KFLO 192320Z 2000/2024 03003KT P6SM FEW040 FM200100 00000KT P6SM SKC FM201400 04007KT P6SM FEW200 FM201800 11005KT P6SM FEW040 FEW200
Issued Sep-19 @ 23:20 UTC
(an hour ago)
Valid From Sep-20 @ 00:00 UTC
(41 minutes ago)
Valid To Sep-21 @ 00:00 UTC
(in 23 hours)
Sep-20 @ 00:00 - Sep-20 @ 01:00
Wind Visibility
30° at 3 knots Greater than 6 miles
Clouds
  • Few at 4,000' AGL
From Sep-20 @ 01:00 - Sep-20 @ 14:00
Clouds
  • Clear skies
From Sep-20 @ 14:00 - Sep-20 @ 18:00
Wind Visibility
40° at 7 knots Greater than 6 miles
Clouds
  • Few at 20,000' AGL
From Sep-20 @ 18:00 - Sep-21 @ 00:00
Wind Visibility
110° at 5 knots Greater than 6 miles
Clouds
  • Few at 4,000' AGL
  • Few at 20,000' AGL